Time;durP1;ratioP1;P1;durP2;ratioP2;P2;SDS_P1;SDS_P2;PMS_P1;PMS_P2;Temp;Humidity;BMP_temperature;BMP_pressure;BME280_temperature;BME280_humidity;BME280_pressure;Samples;Min_cycle;Max_cycle;Signal;HPM_P1;HPM_P2
2022/03/18 00:01:04;;;;;;;8.63;5.13;;;;;;;-0.99;77.38;101277.81;5094421;28;20486;-65
2022/03/18 00:03:31;;;;;;;9.87;5.67;;;;;;;-0.97;76.95;101266.13;5094426;28;20463;-65
2022/03/18 00:05:58;;;;;;;8.97;5.67;;;;;;;-1.00;76.77;101266.09;5093398;28;20478;-64
2022/03/18 00:08:26;;;;;;;10.27;5.37;;;;;;;-0.99;77.76;101262.75;5092542;28;20452;-56
2022/03/18 00:10:55;;;;;;;10.33;5.57;;;;;;;-1.34;76.85;101268.22;5095107;28;20471;-64
2022/03/18 00:13:22;;;;;;;9.50;5.10;;;;;;;-1.44;76.87;101273.97;5094917;28;20876;-56
2022/03/18 00:15:49;;;;;;;10.07;5.47;;;;;;;-1.50;77.08;101277.25;5093837;28;20484;-56
2022/03/18 00:18:16;;;;;;;13.50;5.80;;;;;;;-1.41;77.28;101274.00;5095423;28;20488;-56
2022/03/18 00:20:43;;;;;;;9.53;5.33;;;;;;;-1.45;77.10;101278.16;5094066;28;20487;-65
2022/03/18 00:23:10;;;;;;;8.83;5.03;;;;;;;-1.43;77.11;101279.00;5094351;28;20488;-64
2022/03/18 00:25:38;;;;;;;13.57;6.27;;;;;;;-1.39;76.52;101272.38;5095196;28;20864;-65
2022/03/18 00:28:05;;;;;;;10.87;6.17;;;;;;;-1.43;75.50;101281.50;5092459;28;20809;-56
2022/03/18 00:30:32;;;;;;;12.87;6.07;;;;;;;-1.39;76.07;101277.38;5094378;28;20883;-56
2022/03/18 00:32:59;;;;;;;10.90;5.70;;;;;;;-1.58;74.83;101281.31;5095258;28;20449;-56
2022/03/18 00:35:26;;;;;;;14.40;6.50;;;;;;;-1.50;76.16;101278.91;5094308;28;20475;-56
2022/03/18 00:37:54;;;;;;;10.43;5.23;;;;;;;-1.45;76.49;101272.28;5093663;28;21013;-58
2022/03/18 00:40:20;;;;;;;11.90;6.00;;;;;;;-1.49;76.19;101270.56;5094958;28;20491;-65
2022/03/18 00:42:50;;;;;;;9.90;5.60;;;;;;;-1.44;75.09;101271.47;5095321;28;20841;-56
2022/03/18 00:45:17;;;;;;;8.47;4.90;;;;;;;-1.71;74.29;101272.81;5092433;28;20499;-64
2022/03/18 00:53:28;;;;;;;9.00;5.20;;;;;;;-1.73;74.08;101271.94;5036512;28;20523;-65
2022/03/18 00:55:55;;;;;;;10.87;5.70;;;;;;;-1.88;74.76;101275.06;5035389;28;21023;-56
2022/03/18 00:58:23;;;;;;;10.87;5.33;;;;;;;-2.04;74.30;101270.66;5061056;28;20491;-65
2022/03/18 01:00:50;;;;;;;9.63;5.53;;;;;;;-2.06;74.95;101265.63;5097665;28;20475;-56
2022/03/18 01:03:16;;;;;;;11.63;5.70;;;;;;;-2.06;75.13;101273.16;5097197;28;20466;-65
2022/03/18 01:05:43;;;;;;;9.90;5.60;;;;;;;-2.01;74.91;101274.88;5098783;28;20467;-56
2022/03/18 01:08:10;;;;;;;11.10;5.60;;;;;;;-2.10;74.71;101271.41;5096076;28;20448;-64
2022/03/18 01:10:37;;;;;;;7.83;5.07;;;;;;;-2.11;75.31;101254.69;5096850;28;20853;-65
2022/03/18 01:13:04;;;;;;;10.07;4.93;;;;;;;-2.05;74.98;101263.97;5098562;28;20965;-65
2022/03/18 01:15:33;;;;;;;8.97;4.87;;;;;;;-1.87;72.72;101273.41;5097595;28;20858;-64
2022/03/18 01:18:00;;;;;;;10.43;4.60;;;;;;;-1.80;71.69;101285.22;5098014;28;20541;-56
2022/03/18 01:20:27;;;;;;;10.13;5.37;;;;;;;-1.77;71.52;101290.28;5097024;28;20488;-57
2022/03/18 01:22:54;;;;;;;9.37;5.27;;;;;;;-1.86;71.41;101287.66;5097144;28;20444;-57
2022/03/18 01:25:21;;;;;;;9.37;5.07;;;;;;;-1.82;72.51;101291.88;5097713;28;21008;-65
2022/03/18 01:27:48;;;;;;;8.97;4.80;;;;;;;-1.75;73.64;101288.59;5096527;28;20843;-57
2022/03/18 01:30:15;;;;;;;8.40;4.63;;;;;;;-1.90;74.52;101290.91;5095161;28;20467;-56
2022/03/18 01:32:45;;;;;;;10.27;4.70;;;;;;;-1.94;74.02;101296.72;5095920;28;20456;-56
2022/03/18 01:35:12;;;;;;;9.57;4.63;;;;;;;-1.97;73.25;101299.19;5098028;28;20510;-56
2022/03/18 01:37:38;;;;;;;8.97;4.60;;;;;;;-1.96;73.28;101295.84;5097500;28;20886;-61
2022/03/18 01:40:07;;;;;;;8.97;4.93;;;;;;;-1.96;73.87;101299.19;5097074;28;20502;-65
2022/03/18 01:42:34;;;;;;;10.53;5.30;;;;;;;-1.91;75.41;101291.75;5096778;28;20447;-57
2022/03/18 01:45:00;;;;;;;10.03;5.17;;;;;;;-1.91;76.45;101292.59;5098094;28;20981;-57
2022/03/18 01:47:27;;;;;;;7.87;4.73;;;;;;;-1.91;76.70;101287.56;5097106;28;20444;-57
2022/03/18 01:49:58;;;;;;;11.13;5.70;;;;;;;-1.97;77.39;101286.66;5098788;28;20475;-57
2022/03/18 01:52:25;;;;;;;8.97;4.87;;;;;;;-1.97;77.16;101291.66;5097113;28;20486;-56
2022/03/18 01:54:53;;;;;;;13.03;5.40;;;;;;;-1.99;78.03;101298.31;5096270;28;20463;-66
2022/03/18 01:57:21;;;;;;;10.13;4.77;;;;;;;-2.05;77.61;101299.06;5097327;28;20486;-64
2022/03/18 01:59:48;;;;;;;9.60;5.17;;;;;;;-2.02;78.18;101299.09;5096916;28;20448;-57
2022/03/18 02:02:17;;;;;;;10.67;5.37;;;;;;;-2.05;78.01;101299.91;5096617;28;20474;-57
2022/03/18 02:04:44;;;;;;;10.00;5.13;;;;;;;-2.10;78.48;101309.00;5096060;28;20440;-65
2022/03/18 02:07:13;;;;;;;8.03;4.77;;;;;;;-2.15;77.84;101313.13;5097132;28;20440;-57
2022/03/18 02:09:41;;;;;;;10.23;5.40;;;;;;;-2.14;77.41;101303.94;5096664;28;20463;-57
2022/03/18 02:12:10;;;;;;;9.03;4.77;;;;;;;-2.18;78.09;101313.06;5097395;28;20456;-64
2022/03/18 02:14:38;;;;;;;9.70;5.00;;;;;;;-2.26;78.91;101314.59;5096428;28;20448;-65
2022/03/18 02:17:08;;;;;;;9.60;5.00;;;;;;;-2.30;79.37;101308.72;5096221;28;20448;-65
2022/03/18 02:19:36;;;;;;;10.67;5.23;;;;;;;-2.41;79.77;101305.19;5097348;28;20474;-65
2022/03/18 02:22:10;;;;;;;8.90;5.03;;;;;;;-2.38;79.93;101316.91;5096883;28;20440;-65
2022/03/18 02:24:39;;;;;;;9.57;4.97;;;;;;;-2.39;80.16;101312.72;5096083;28;20452;-56
2022/03/18 02:27:06;;;;;;;9.00;4.97;;;;;;;-2.34;79.47;101311.13;5096658;28;20444;-65
2022/03/18 02:29:33;;;;;;;9.40;5.03;;;;;;;-2.31;79.38;101317.03;5098042;28;20846;-56
2022/03/18 02:32:01;;;;;;;9.03;4.80;;;;;;;-2.34;78.09;101321.16;5096144;28;20448;-65
2022/03/18 02:34:28;;;;;;;10.23;5.43;;;;;;;-2.35;77.45;101317.81;5095920;28;20456;-56
2022/03/18 02:36:56;;;;;;;10.63;4.93;;;;;;;-2.33;76.95;101332.84;5098662;28;20464;-63
2022/03/18 02:39:23;;;;;;;10.93;5.20;;;;;;;-2.35;76.50;101325.31;5095900;28;20480;-65
2022/03/18 02:41:52;;;;;;;7.03;4.47;;;;;;;-2.34;76.13;101327.00;5097215;28;20480;-56
2022/03/18 02:44:19;;;;;;;12.30;4.90;;;;;;;-2.34;75.88;101331.19;5098104;28;20487;-56
2022/03/18 02:46:46;;;;;;;9.40;5.37;;;;;;;-2.31;76.19;101328.72;5097559;28;20463;-65
2022/03/18 02:49:13;;;;;;;9.37;5.23;;;;;;;-2.31;76.44;101336.22;5095403;28;20456;-57
2022/03/18 02:51:41;;;;;;;10.67;5.30;;;;;;;-2.40;76.57;101343.59;5095207;28;20528;-56
2022/03/18 02:54:09;;;;;;;7.87;4.60;;;;;;;-2.34;77.38;101341.19;5096492;28;20482;-65
2022/03/18 02:56:36;;;;;;;9.43;5.00;;;;;;;-2.32;77.47;101337.91;5097077;28;20833;-65
2022/03/18 02:59:05;;;;;;;10.33;4.83;;;;;;;-2.48;78.24;101335.09;5094889;28;20488;-57
2022/03/18 03:01:33;;;;;;;8.50;5.00;;;;;;;-2.52;78.31;101346.75;5098106;28;20479;-56
2022/03/18 03:04:00;;;;;;;14.13;5.23;;;;;;;-2.57;78.06;101346.63;5098259;28;20460;-56
2022/03/18 03:09:16;;;;;;;10.60;6.00;;;;;;;-2.88;78.41;101336.88;5096738;28;20430;-56
2022/03/18 03:11:43;;;;;;;10.97;5.60;;;;;;;-2.84;78.68;101349.50;5094943;28;20851;-61
2022/03/18 03:14:13;;;;;;;14.03;7.17;;;;;;;-2.98;78.48;101351.72;5096110;28;20973;-65
2022/03/18 03:16:41;;;;;;;30.23;14.10;;;;;;;-2.96;78.98;101352.59;5095922;28;20467;-65
2022/03/18 03:19:07;;;;;;;30.77;13.87;;;;;;;-3.04;79.08;101356.63;5096037;28;20510;-65
2022/03/18 03:21:35;;;;;;;14.77;6.90;;;;;;;-2.92;79.31;101355.16;5094576;28;20463;-65
2022/03/18 03:24:02;;;;;;;13.37;6.47;;;;;;;-2.90;79.46;101363.56;5095736;28;20474;-56
2022/03/18 03:26:29;;;;;;;10.83;5.67;;;;;;;-2.93;79.72;101356.00;5096888;28;20463;-65
2022/03/18 03:28:56;;;;;;;10.50;4.90;;;;;;;-3.02;79.63;101364.16;5096749;28;20447;-60
2022/03/18 03:31:25;;;;;;;9.57;5.43;;;;;;;-2.92;80.10;101365.19;5096028;28;20480;-56
2022/03/18 03:33:52;;;;;;;9.07;4.63;;;;;;;-3.02;80.13;101360.00;5097401;28;20505;-56
2022/03/18 03:36:23;;;;;;;11.20;4.97;;;;;;;-3.09;80.39;101367.34;5095826;28;20472;-64
2022/03/18 03:38:51;;;;;;;11.07;5.50;;;;;;;-3.11;80.47;101374.84;5096057;28;20483;-65
2022/03/18 03:41:21;;;;;;;10.07;5.33;;;;;;;-3.26;80.21;101364.50;5094708;28;20467;-57
2022/03/18 03:43:48;;;;;;;10.90;5.00;;;;;;;-3.10;79.83;101370.66;5095502;28;20535;-56
2022/03/18 03:46:15;;;;;;;8.43;4.07;;;;;;;-3.02;78.72;101369.16;5096171;28;20482;-65
2022/03/18 03:48:45;;;;;;;9.37;4.93;;;;;;;-3.18;78.05;101373.00;5095996;28;20454;-56
2022/03/18 03:51:12;;;;;;;6.47;4.13;;;;;;;-3.19;78.79;101363.81;5095880;28;20505;-56
2022/03/18 03:53:38;;;;;;;8.60;4.57;;;;;;;-3.14;78.97;101374.78;5094615;28;20530;-65
2022/03/18 03:56:06;;;;;;;9.13;4.87;;;;;;;-3.04;79.54;101376.63;5097725;28;20480;-56
2022/03/18 03:58:32;;;;;;;10.13;5.13;;;;;;;-3.02;81.07;101379.19;5095793;28;20499;-63
2022/03/18 04:00:59;;;;;;;10.07;5.70;;;;;;;-3.12;81.42;101378.13;5096005;28;20484;-57
2022/03/18 04:03:28;;;;;;;11.83;5.63;;;;;;;-3.17;82.16;101381.34;5094786;28;20456;-64
2022/03/18 04:05:56;;;;;;;11.33;5.70;;;;;;;-3.17;82.25;101383.84;5095665;28;20456;-56
2022/03/18 04:08:23;;;;;;;9.03;5.60;;;;;;;-3.19;82.90;101388.84;5094679;28;20459;-64
2022/03/18 04:10:50;;;;;;;10.10;5.57;;;;;;;-3.29;82.47;101395.28;5095134;28;20881;-56
2022/03/18 04:13:17;;;;;;;13.57;6.07;;;;;;;-3.40;82.90;101386.72;5093226;28;20446;-64
2022/03/18 04:15:45;;;;;;;10.73;5.20;;;;;;;-3.47;83.11;101395.72;5096710;28;20490;-65
2022/03/18 04:18:12;;;;;;;11.63;5.33;;;;;;;-3.59;82.66;101395.47;5094143;28;20484;-60
2022/03/18 04:20:39;;;;;;;10.17;5.57;;;;;;;-3.72;82.52;101404.34;5096337;28;20476;-57
2022/03/18 04:23:08;;;;;;;14.30;5.10;;;;;;;-3.69;82.69;101404.41;5096968;28;20427;-65
2022/03/18 04:25:34;;;;;;;7.93;4.90;;;;;;;-3.57;82.66;101408.84;5102779;28;20475;-56
2022/03/18 04:28:01;;;;;;;11.03;5.30;;;;;;;-3.63;83.05;101411.22;5102299;28;20436;-56
2022/03/18 04:30:28;;;;;;;12.27;5.57;;;;;;;-3.65;82.90;101406.16;5101123;28;20491;-62
2022/03/18 04:32:55;;;;;;;11.13;5.80;;;;;;;-3.80;82.49;101415.81;5102005;28;20444;-64
2022/03/18 04:35:23;;;;;;;10.77;5.10;;;;;;;-3.77;82.50;101410.88;5101732;28;21025;-64
2022/03/18 04:37:51;;;;;;;11.03;5.83;;;;;;;-3.69;82.39;101419.41;5102163;28;20475;-64
2022/03/18 04:40:19;;;;;;;12.17;5.40;;;;;;;-3.69;82.39;101421.91;5101513;28;20495;-56
2022/03/18 04:42:46;;;;;;;9.73;5.30;;;;;;;-3.74;81.71;101425.13;5102623;28;20443;-64
2022/03/18 04:45:16;;;;;;;10.70;5.23;;;;;;;-3.55;81.65;101437.25;5101561;28;20471;-59
2022/03/18 04:47:43;;;;;;;10.10;5.20;;;;;;;-3.50;81.54;101433.16;5101750;28;20983;-64
2022/03/18 04:50:11;;;;;;;8.60;5.47;;;;;;;-3.47;81.40;101434.91;5102062;28;20522;-63
2022/03/18 04:52:39;;;;;;;10.80;5.57;;;;;;;-3.45;81.24;101439.13;5100127;28;21042;-64
2022/03/18 04:55:08;;;;;;;10.07;5.37;;;;;;;-3.47;81.09;101447.41;5101440;28;20475;-64
2022/03/18 04:57:37;;;;;;;12.20;5.47;;;;;;;-3.48;81.29;101453.22;5101103;28;20463;-64
2022/03/18 05:00:05;;;;;;;10.30;5.50;;;;;;;-3.36;81.37;101452.66;5100236;28;20499;-56
2022/03/18 05:02:32;;;;;;;14.60;7.10;;;;;;;-3.28;81.61;101451.19;5101699;28;20444;-64
2022/03/18 05:05:00;;;;;;;12.00;5.57;;;;;;;-3.18;81.18;101458.06;5102853;28;20482;-55
2022/03/18 05:07:27;;;;;;;13.40;6.50;;;;;;;-3.22;80.33;101449.66;5102305;28;20452;-56
2022/03/18 05:09:54;;;;;;;7.50;4.03;;;;;;;-3.23;80.60;101459.59;5101452;28;20467;-66
2022/03/18 05:12:21;;;;;;;10.53;5.47;;;;;;;-3.08;80.54;101464.97;5102214;28;20460;-55
2022/03/18 05:14:49;;;;;;;10.67;5.37;;;;;;;-3.03;79.90;101455.03;5102362;28;20464;-56
2022/03/18 05:17:17;;;;;;;9.00;5.30;;;;;;;-2.87;78.91;101467.09;5102637;28;20450;-56
2022/03/18 05:19:43;;;;;;;14.17;6.23;;;;;;;-2.83;78.11;101468.81;5101376;28;20491;-56
2022/03/18 05:22:10;;;;;;;12.77;6.03;;;;;;;-2.64;76.29;101476.72;5101990;28;20454;-64
2022/03/18 05:24:37;;;;;;;10.70;4.57;;;;;;;-2.44;75.16;101474.59;5101950;28;20466;-59
2022/03/18 05:27:05;;;;;;;12.20;6.30;;;;;;;-2.49;72.83;101476.19;5100536;28;20456;-56
2022/03/18 05:29:32;;;;;;;10.97;5.67;;;;;;;-2.25;71.62;101485.81;5100742;28;20820;-60
2022/03/18 05:32:02;;;;;;;9.40;5.67;;;;;;;-2.09;70.53;101493.66;5100911;28;20856;-64
2022/03/18 05:34:29;;;;;;;9.40;4.57;;;;;;;-2.05;68.96;101504.59;5098596;28;20504;-55
2022/03/18 05:36:56;;;;;;;8.43;4.43;;;;;;;-1.82;66.43;101507.50;5097695;28;20472;-64
2022/03/18 05:39:23;;;;;;;6.43;3.67;;;;;;;-1.79;66.06;101501.69;5096778;28;20490;-55
2022/03/18 05:41:50;;;;;;;13.23;6.03;;;;;;;-1.57;67.05;101512.91;5096359;28;20501;-60
2022/03/18 05:44:19;;;;;;;6.57;4.00;;;;;;;-1.31;63.44;101511.69;5096256;28;20444;-64
2022/03/18 05:46:46;;;;;;;11.73;5.87;;;;;;;-1.33;64.69;101518.34;5095962;28;21009;-56
2022/03/18 05:49:14;;;;;;;11.63;6.23;;;;;;;-1.06;64.14;101519.56;5097304;28;20996;-58
2022/03/18 05:51:41;;;;;;;11.77;5.83;;;;;;;-0.96;62.74;101522.25;5096075;28;20491;-56
2022/03/18 05:54:10;;;;;;;9.77;4.93;;;;;;;-0.84;61.99;101523.22;5098141;28;20452;-64
2022/03/18 05:56:56;;;;;;;10.97;6.10;;;;;;;-0.89;59.92;101520.66;5097044;28;20472;-55
2022/03/18 05:59:24;;;;;;;12.07;6.83;;;;;;;-0.66;60.98;101526.00;5096388;28;20500;-63
2022/03/18 06:01:52;;;;;;;11.60;5.73;;;;;;;-0.74;59.31;101533.41;5097035;28;20468;-64
2022/03/18 06:04:22;;;;;;;10.67;4.57;;;;;;;-0.53;59.23;101534.53;5097308;28;20853;-56
2022/03/18 06:06:48;;;;;;;12.93;6.17;;;;;;;-0.51;58.46;101532.88;5096528;28;20464;-58
2022/03/18 06:12:00;;;;;;;8.10;4.90;;;;;;;-0.54;57.42;101542.91;5096274;28;20435;-66
2022/03/18 06:14:31;;;;;;;9.53;4.03;;;;;;;-0.27;55.10;101547.41;5096753;28;20472;-61
2022/03/18 06:17:00;;;;;;;9.10;4.33;;;;;;;-0.24;55.04;101542.41;5096080;28;20447;-66
2022/03/18 06:19:31;;;;;;;7.00;3.80;;;;;;;-0.03;55.13;101539.28;5094093;28;20492;-67
2022/03/18 06:21:58;;;;;;;10.13;4.63;;;;;;;0.12;55.06;101541.16;5095504;28;20448;-58
2022/03/18 06:24:26;;;;;;;6.17;3.83;;;;;;;0.02;52.99;101540.19;5095859;28;20466;-58
2022/03/18 06:26:54;;;;;;;12.47;5.90;;;;;;;0.19;55.53;101543.72;5095884;28;20479;-58
2022/03/18 06:29:22;;;;;;;9.37;4.57;;;;;;;0.35;53.28;101541.34;5093715;28;20456;-66
2022/03/18 06:31:49;;;;;;;11.60;5.07;;;;;;;0.25;51.68;101552.16;5094691;28;20467;-58
2022/03/18 06:34:18;;;;;;;6.97;4.03;;;;;;;0.54;52.75;101545.72;5095128;28;20448;-66
2022/03/18 06:36:46;;;;;;;8.53;4.97;;;;;;;0.43;52.52;101552.31;5097335;28;20484;-57
2022/03/18 06:39:14;;;;;;;8.17;4.60;;;;;;;0.40;52.24;101552.31;5097798;28;20491;-58
2022/03/18 06:41:40;;;;;;;7.47;4.30;;;;;;;0.50;52.51;101554.09;5096303;28;20559;-57
2022/03/18 06:44:08;;;;;;;9.77;5.50;;;;;;;0.79;52.03;101550.97;5095159;28;20467;-66
2022/03/18 06:46:35;;;;;;;10.83;4.37;;;;;;;0.90;51.32;101556.91;5095368;28;20467;-58
2022/03/18 06:49:02;;;;;;;8.27;4.87;;;;;;;0.75;51.82;101549.25;5096585;28;20452;-59
2022/03/18 06:51:31;;;;;;;8.63;4.50;;;;;;;0.78;51.76;101556.81;5096587;28;20224;-58
2022/03/18 06:54:00;;;;;;;12.37;5.60;;;;;;;0.96;52.62;101549.41;5094947;28;20202;-58
2022/03/18 06:56:30;;;;;;;11.10;6.20;;;;;;;0.97;53.08;101556.13;5096418;28;20222;-65
2022/03/18 06:58:57;;;;;;;10.07;4.97;;;;;;;1.20;50.35;101557.97;5095956;28;20492;-66
2022/03/18 07:01:24;;;;;;;7.07;4.20;;;;;;;1.05;51.57;101557.03;5095664;28;20490;-58
2022/03/18 07:03:52;;;;;;;10.20;4.90;;;;;;;1.04;52.87;101560.34;5095976;28;20605;-57
2022/03/18 07:06:19;;;;;;;10.00;4.30;;;;;;;1.13;50.69;101562.97;5094754;28;20470;-66
2022/03/18 07:08:46;;;;;;;11.67;4.17;;;;;;;1.24;50.79;101570.56;5095553;28;20668;-58
2022/03/18 07:11:14;;;;;;;8.70;5.03;;;;;;;1.26;52.28;101566.38;5097492;28;20226;-58
2022/03/18 07:13:42;;;;;;;9.70;4.80;;;;;;;1.37;50.64;101571.50;5093717;28;20633;-66
2022/03/18 07:18:53;;;;;;;7.00;3.73;;;;;;;1.25;50.99;101577.31;5094970;28;20229;-66
2022/03/18 07:21:20;;;;;;;10.27;5.20;;;;;;;1.41;52.67;101570.66;5096754;28;20626;-66
2022/03/18 07:23:48;;;;;;;14.27;5.37;;;;;;;1.47;50.96;101575.75;5095442;28;20201;-65
2022/03/18 07:26:16;;;;;;;12.07;6.47;;;;;;;1.81;53.08;101573.38;5095974;28;20296;-58
2022/03/18 07:28:44;;;;;;;8.80;4.47;;;;;;;1.92;50.36;101575.91;5095638;28;20210;-66
2022/03/18 07:31:11;;;;;;;7.27;4.47;;;;;;;1.91;50.66;101572.56;5096872;28;20317;-58
2022/03/18 07:33:38;;;;;;;10.80;5.23;;;;;;;2.14;50.06;101571.78;5095352;28;20222;-65
2022/03/18 07:36:05;;;;;;;11.20;5.83;;;;;;;2.13;50.75;101575.16;5094715;28;20222;-67
2022/03/18 07:38:32;;;;;;;11.63;5.93;;;;;;;2.73;53.07;101573.53;5095042;28;20305;-58
2022/03/18 07:40:59;;;;;;;13.63;6.63;;;;;;;2.19;51.43;101580.22;5094287;28;20237;-58
2022/03/18 07:43:27;;;;;;;14.50;6.13;;;;;;;2.27;49.43;101583.63;5094806;28;20589;-66
2022/03/18 07:45:55;;;;;;;10.67;5.63;;;;;;;2.61;48.92;101588.69;5094974;28;20231;-58
2022/03/18 07:48:26;;;;;;;10.63;5.47;;;;;;;3.10;48.72;101593.75;5096333;28;20218;-66
2022/03/18 07:50:54;;;;;;;10.50;6.33;;;;;;;3.18;49.43;101587.84;5093965;28;20261;-60
2022/03/18 07:53:21;;;;;;;10.87;6.30;;;;;;;3.24;48.90;101586.97;5094532;28;20214;-66
2022/03/18 07:55:48;;;;;;;9.93;5.13;;;;;;;3.32;50.45;101574.34;5093900;28;20230;-66
2022/03/18 07:58:16;;;;;;;11.67;6.00;;;;;;;3.14;50.64;101580.25;5092949;28;20213;-59
2022/03/18 08:00:44;;;;;;;10.37;5.63;;;;;;;2.90;49.05;101581.97;5094879;28;20242;-66
2022/03/18 08:03:11;;;;;;;10.30;5.90;;;;;;;2.99;50.23;101581.09;5097261;28;20592;-67
2022/03/18 08:05:38;;;;;;;13.30;6.17;;;;;;;2.94;49.64;101582.81;5095525;28;20217;-66
2022/03/18 08:08:07;;;;;;;8.93;4.30;;;;;;;2.41;47.62;101586.97;5095220;28;20209;-58
2022/03/18 08:10:34;;;;;;;7.93;4.70;;;;;;;2.97;51.07;101581.94;5095184;28;20221;-67
2022/03/18 08:13:01;;;;;;;9.50;5.73;;;;;;;3.01;48.45;101578.59;5094734;28;20666;-67
2022/03/18 08:15:30;;;;;;;13.17;6.53;;;;;;;3.12;49.58;101581.97;5096021;28;20225;-58
2022/03/18 08:17:58;;;;;;;10.03;5.40;;;;;;;3.02;47.43;101580.28;5095851;28;20198;-58
2022/03/18 08:20:26;;;;;;;10.33;6.53;;;;;;;3.75;47.75;101582.63;5093869;28;20244;-58
2022/03/18 08:22:53;;;;;;;9.17;5.47;;;;;;;3.66;46.24;101580.13;5095331;28;20182;-59
2022/03/18 08:25:20;;;;;;;11.23;5.10;;;;;;;4.30;45.79;101579.81;5094814;28;20226;-58
2022/03/18 08:27:49;;;;;;;8.50;4.80;;;;;;;4.69;43.41;101582.91;5093954;28;20267;-67
2022/03/18 08:30:19;;;;;;;9.53;5.50;;;;;;;5.29;43.04;101581.53;5093054;28;20644;-66
2022/03/18 08:32:46;;;;;;;7.73;4.43;;;;;;;5.10;41.70;101574.09;5092979;28;20255;-67
2022/03/18 08:35:15;;;;;;;7.00;4.23;;;;;;;4.73;44.37;101578.66;5095694;28;20247;-59
2022/03/18 08:37:58;;;;;;;7.77;4.63;;;;;;;5.57;43.40;101579.53;5093857;28;20216;-67
2022/03/18 08:40:27;;;;;;;8.00;4.53;;;;;;;5.29;42.70;101569.66;5095507;28;20237;-67
2022/03/18 08:42:54;;;;;;;6.60;4.87;;;;;;;4.89;42.30;101580.22;5095920;28;20255;-66
2022/03/18 08:45:21;;;;;;;6.40;3.70;;;;;;;4.37;40.31;101579.78;5095055;28;20715;-67
2022/03/18 08:47:48;;;;;;;7.43;4.23;;;;;;;3.50;43.69;101573.44;5094370;28;20198;-67
2022/03/18 08:50:17;;;;;;;10.33;4.63;;;;;;;3.92;44.58;101571.56;5094436;28;20218;-58
2022/03/18 08:52:45;;;;;;;9.70;5.27;;;;;;;4.06;43.45;101570.66;5094276;28;20201;-66
2022/03/18 08:55:12;;;;;;;6.13;3.80;;;;;;;3.97;42.87;101569.88;5093806;28;20230;-67
2022/03/18 08:57:39;;;;;;;8.23;4.53;;;;;;;4.18;42.58;101574.81;5095188;28;20202;-67
2022/03/18 09:00:09;;;;;;;9.00;5.27;;;;;;;3.92;45.15;101571.56;5092628;28;20233;-67
2022/03/18 09:02:36;;;;;;;6.77;3.77;;;;;;;4.97;44.14;101567.47;5094518;28;20618;-66
2022/03/18 09:05:05;;;;;;;8.63;4.90;;;;;;;5.42;44.82;101561.09;5095315;28;20254;-66
2022/03/18 09:07:35;;;;;;;7.07;3.93;;;;;;;6.39;42.35;101570.00;5094656;28;20198;-66
2022/03/18 09:10:02;;;;;;;8.07;4.97;;;;;;;6.50;43.28;101565.59;5096826;28;20221;-66
2022/03/18 09:12:29;;;;;;;10.30;5.40;;;;;;;6.62;41.62;101573.91;5099099;28;20204;-66
2022/03/18 09:14:58;;;;;;;9.57;4.37;;;;;;;6.62;40.76;101571.34;5098925;28;20229;-58
2022/03/18 09:17:25;;;;;;;8.40;4.30;;;;;;;5.20;42.41;101573.13;5099012;28;20194;-67
2022/03/18 09:19:52;;;;;;;8.57;4.47;;;;;;;4.71;42.29;101576.16;5098131;28;20236;-58
2022/03/18 09:22:19;;;;;;;9.20;5.57;;;;;;;4.52;46.28;101575.44;5098428;28;20671;-66
2022/03/18 09:24:49;;;;;;;8.50;4.97;;;;;;;5.78;42.99;101569.13;5098634;28;20279;-67
2022/03/18 09:27:16;;;;;;;9.20;4.90;;;;;;;6.39;40.10;101567.47;5096014;28;20238;-59
2022/03/18 09:29:44;;;;;;;10.93;4.73;;;;;;;6.97;43.73;101565.69;5097877;28;20206;-62
2022/03/18 09:32:12;;;;;;;11.40;5.43;;;;;;;7.37;39.45;101562.41;5098394;28;20229;-67
2022/03/18 09:34:39;;;;;;;8.63;5.13;;;;;;;7.17;43.29;101567.88;5098373;28;20209;-68
2022/03/18 09:37:06;;;;;;;8.37;5.30;;;;;;;7.14;43.10;101563.69;5098794;28;20660;-59
2022/03/18 09:39:33;;;;;;;8.67;5.30;;;;;;;6.99;40.00;101564.78;5100223;28;20231;-67
2022/03/18 09:42:02;;;;;;;12.37;5.87;;;;;;;7.17;41.88;101570.41;5097932;28;20225;-59
2022/03/18 09:44:36;;;;;;;8.63;5.33;;;;;;;6.85;41.35;101579.44;5096756;28;20270;-58
2022/03/18 09:47:04;;;;;;;8.33;5.20;;;;;;;7.14;40.97;101573.84;5098657;28;20199;-67
2022/03/18 09:49:31;;;;;;;8.50;4.93;;;;;;;7.22;40.33;101566.09;5098437;28;20213;-58
2022/03/18 09:51:58;;;;;;;9.13;5.67;;;;;;;7.41;44.13;101572.50;5098737;28;20206;-68
2022/03/18 09:54:25;;;;;;;12.20;6.47;;;;;;;7.75;46.88;101574.38;5097048;28;20205;-56
2022/03/18 09:56:53;;;;;;;9.50;6.50;;;;;;;8.03;44.07;101578.88;5098002;28;20229;-57
2022/03/18 09:59:23;;;;;;;9.57;5.53;;;;;;;6.52;43.01;101584.22;5097521;28;20209;-68
2022/03/18 10:01:52;;;;;;;12.07;6.40;;;;;;;6.60;45.68;101573.91;5097594;28;20731;-67
2022/03/18 10:04:19;;;;;;;9.03;5.53;;;;;;;7.03;42.68;101570.66;5097973;28;20205;-57
2022/03/18 10:06:46;;;;;;;8.97;5.20;;;;;;;6.42;42.81;101582.66;5099416;28;20225;-65
2022/03/18 10:09:15;;;;;;;9.97;6.30;;;;;;;5.98;44.49;101576.50;5096968;28;20210;-61
2022/03/18 10:11:44;;;;;;;9.77;5.43;;;;;;;5.77;43.02;101571.69;5097140;28;20256;-57
2022/03/18 10:14:15;;;;;;;8.90;5.37;;;;;;;5.87;45.57;101568.16;5096714;28;20228;-65
2022/03/18 10:16:45;;;;;;;10.33;5.57;;;;;;;6.18;45.47;101577.94;5094646;28;20240;-65
2022/03/18 10:19:14;;;;;;;9.37;5.40;;;;;;;6.65;43.42;101576.38;5096882;28;20214;-65
2022/03/18 10:21:51;;;;;;;9.90;6.00;;;;;;;7.19;44.02;101572.06;5096030;28;20259;-57
2022/03/18 10:24:23;;;;;;;14.10;6.73;;;;;;;7.36;45.31;101574.31;5096445;28;20648;-57
2022/03/18 10:26:51;;;;;;;10.53;6.17;;;;;;;7.94;43.98;101568.03;5094369;28;20283;-57
2022/03/18 10:29:18;;;;;;;8.07;5.27;;;;;;;6.83;44.56;101563.38;5093986;28;20206;-60
2022/03/18 10:32:00;;;;;;;12.47;6.00;;;;;;;6.72;41.83;101560.16;5094779;28;20734;-66
2022/03/18 10:37:21;;;;;;;9.10;5.13;;;;;;;7.44;39.85;101559.69;5095021;28;20205;-66
2022/03/18 10:39:50;;;;;;;13.73;6.83;;;;;;;7.28;41.21;101554.97;5094135;28;20267;-57
2022/03/18 10:42:19;;;;;;;11.70;6.93;;;;;;;7.19;41.85;101550.88;5096593;28;20228;-65
2022/03/18 10:44:49;;;;;;;11.33;5.33;;;;;;;7.28;42.03;101563.44;5095486;28;20209;-65
2022/03/18 10:47:31;;;;;;;9.70;5.00;;;;;;;7.06;41.01;101552.78;5096900;28;20214;-65
2022/03/18 10:50:21;;;;;;;12.67;4.90;;;;;;;7.89;40.52;101556.25;5097169;28;20237;-65
2022/03/18 10:53:08;;;;;;;7.23;4.63;;;;;;;7.46;38.98;101549.50;5098595;28;20205;-57
2022/03/18 10:55:36;;;;;;;7.43;3.90;;;;;;;7.54;36.55;101547.66;5096554;28;20229;-66
2022/03/18 10:58:08;;;;;;;5.43;3.60;;;;;;;7.39;40.22;101548.78;5097288;28;20213;-64
2022/03/18 11:00:37;;;;;;;7.03;4.70;;;;;;;6.67;40.01;101546.72;5094614;28;20238;-66
2022/03/18 11:03:06;;;;;;;8.20;4.70;;;;;;;7.88;43.51;101546.94;5096563;28;20293;-66
2022/03/18 11:05:35;;;;;;;8.13;5.00;;;;;;;8.09;42.54;101546.47;5096551;28;20279;-59
2022/03/18 11:08:04;;;;;;;6.73;4.13;;;;;;;7.70;38.53;101548.16;5095193;28;20209;-57
2022/03/18 11:13:22;;;;;;;16.37;5.70;;;;;;;7.63;39.14;101546.63;5096667;28;20780;-66
2022/03/18 11:15:51;;;;;;;8.07;4.97;;;;;;;8.05;37.77;101533.81;5096652;28;20222;-57
2022/03/18 11:18:20;;;;;;;8.87;5.33;;;;;;;8.13;41.38;101526.84;5096663;28;20202;-57
2022/03/18 11:20:50;;;;;;;7.00;4.47;;;;;;;7.45;37.75;101528.31;5095209;28;20322;-66
2022/03/18 11:23:19;;;;;;;11.27;4.90;;;;;;;7.27;39.43;101528.66;5095418;28;20202;-57
2022/03/18 11:25:49;;;;;;;6.97;4.40;;;;;;;7.62;39.34;101524.56;5095639;28;20233;-58
2022/03/18 11:28:17;;;;;;;8.07;4.60;;;;;;;7.64;39.53;101540.66;5096107;28;20206;-65
2022/03/18 11:30:47;;;;;;;8.43;4.60;;;;;;;6.90;35.55;101519.19;5095689;28;20225;-65
2022/03/18 11:33:24;;;;;;;9.07;5.20;;;;;;;7.11;41.28;101522.19;5094031;28;20289;-65
2022/03/18 11:36:06;;;;;;;8.63;5.33;;;;;;;8.14;40.98;101520.88;5095687;28;20225;-66
2022/03/18 11:38:49;;;;;;;7.67;4.57;;;;;;;7.96;38.12;101519.59;5095931;28;20217;-57
2022/03/18 11:41:19;;;;;;;7.77;5.00;;;;;;;8.26;40.03;101517.19;5093520;28;20306;-57
2022/03/18 11:43:52;;;;;;;7.23;4.33;;;;;;;7.78;36.46;101520.84;5094503;28;20213;-65
2022/03/18 11:46:23;;;;;;;12.10;6.30;;;;;;;7.93;39.11;101514.56;5094750;28;20221;-56
2022/03/18 11:48:52;;;;;;;10.50;5.50;;;;;;;8.41;40.10;101511.78;5095358;28;20202;-65